sensor_id;sensor_type;location;lat;lon;timestamp;temperature;humidity
5027;DHT22;2532;52.480;13.354;2022-08-21T00:00:00;22.00;99.10
5027;DHT22;2532;52.480;13.354;2022-08-21T00:02:28;22.00;99.20
5027;DHT22;2532;52.480;13.354;2022-08-21T00:04:56;22.00;99.20
5027;DHT22;2532;52.480;13.354;2022-08-21T00:07:23;21.90;99.30
5027;DHT22;2532;52.480;13.354;2022-08-21T00:09:50;21.90;99.40
5027;DHT22;2532;52.480;13.354;2022-08-21T00:12:17;21.90;99.40
5027;DHT22;2532;52.480;13.354;2022-08-21T00:14:44;21.90;99.40
5027;DHT22;2532;52.480;13.354;2022-08-21T00:17:11;21.80;99.40
5027;DHT22;2532;52.480;13.354;2022-08-21T00:19:37;21.80;99.40
5027;DHT22;2532;52.480;13.354;2022-08-21T00:22:05;21.80;99.40
5027;DHT22;2532;52.480;13.354;2022-08-21T00:24:33;21.80;99.80
5027;DHT22;2532;52.480;13.354;2022-08-21T00:26:59;21.70;99.40
5027;DHT22;2532;52.480;13.354;2022-08-21T00:29:26;21.70;99.40
5027;DHT22;2532;52.480;13.354;2022-08-21T00:31:53;21.70;99.40
5027;DHT22;2532;52.480;13.354;2022-08-21T00:34:20;21.60;99.20
5027;DHT22;2532;52.480;13.354;2022-08-21T00:36:48;21.60;99.20
5027;DHT22;2532;52.480;13.354;2022-08-21T00:39:16;21.60;99.10
5027;DHT22;2532;52.480;13.354;2022-08-21T00:41:44;21.60;99.30
5027;DHT22;2532;52.480;13.354;2022-08-21T00:44:13;21.60;99.00
5027;DHT22;2532;52.480;13.354;2022-08-21T00:46:41;21.60;99.00
5027;DHT22;2532;52.480;13.354;2022-08-21T00:49:09;21.50;99.10
5027;DHT22;2532;52.480;13.354;2022-08-21T00:51:40;21.50;99.30
5027;DHT22;2532;52.480;13.354;2022-08-21T00:54:10;21.60;99.50
5027;DHT22;2532;52.480;13.354;2022-08-21T00:56:38;21.60;99.70
5027;DHT22;2532;52.480;13.354;2022-08-21T00:59:06;21.50;99.90
5027;DHT22;2532;52.480;13.354;2022-08-21T01:01:33;21.50;99.90
5027;DHT22;2532;52.480;13.354;2022-08-21T01:04:00;21.50;99.90
5027;DHT22;2532;52.480;13.354;2022-08-21T01:06:27;21.30;99.90
5027;DHT22;2532;52.480;13.354;2022-08-21T01:08:54;21.30;99.90
5027;DHT22;2532;52.480;13.354;2022-08-21T01:11:21;21.20;99.90
5027;DHT22;2532;52.480;13.354;2022-08-21T01:13:50;21.20;99.90
5027;DHT22;2532;52.480;13.354;2022-08-21T01:16:19;21.20;99.90
5027;DHT22;2532;52.480;13.354;2022-08-21T01:18:47;21.10;99.90
5027;DHT22;2532;52.480;13.354;2022-08-21T01:21:17;21.10;99.90
5027;DHT22;2532;52.480;13.354;2022-08-21T01:23:46;21.10;99.90
5027;DHT22;2532;52.480;13.354;2022-08-21T01:26:16;21.10;99.90
5027;DHT22;2532;52.480;13.354;2022-08-21T01:28:47;21.10;99.90
5027;DHT22;2532;52.480;13.354;2022-08-21T01:31:19;21.10;99.90
5027;DHT22;2532;52.480;13.354;2022-08-21T01:33:46;21.10;99.90
5027;DHT22;2532;52.480;13.354;2022-08-21T01:36:15;21.00;99.90
5027;DHT22;2532;52.480;13.354;2022-08-21T01:38:42;21.00;99.90
5027;DHT22;2532;52.480;13.354;2022-08-21T01:41:09;21.00;99.90
5027;DHT22;2532;52.480;13.354;2022-08-21T01:43:36;21.00;99.90
5027;DHT22;2532;52.480;13.354;2022-08-21T01:46:03;20.90;99.90
5027;DHT22;2532;52.480;13.354;2022-08-21T01:48:30;20.90;99.90
5027;DHT22;2532;52.480;13.354;2022-08-21T01:50:57;20.90;99.90
5027;DHT22;2532;52.480;13.354;2022-08-21T01:53:25;20.90;99.90
5027;DHT22;2532;52.480;13.354;2022-08-21T01:55:52;20.90;99.90
5027;DHT22;2532;52.480;13.354;2022-08-21T01:58:19;20.90;99.40
5027;DHT22;2532;52.480;13.354;2022-08-21T02:00:46;20.80;99.20
5027;DHT22;2532;52.480;13.354;2022-08-21T02:03:13;20.80;99.20
5027;DHT22;2532;52.480;13.354;2022-08-21T02:05:40;20.80;99.00
5027;DHT22;2532;52.480;13.354;2022-08-21T02:08:07;20.70;98.90
5027;DHT22;2532;52.480;13.354;2022-08-21T02:10:35;20.70;98.80
5027;DHT22;2532;52.480;13.354;2022-08-21T02:13:02;20.60;98.60
5027;DHT22;2532;52.480;13.354;2022-08-21T02:15:30;20.60;98.70
5027;DHT22;2532;52.480;13.354;2022-08-21T02:18:00;20.70;98.70
5027;DHT22;2532;52.480;13.354;2022-08-21T02:20:29;20.60;98.60
5027;DHT22;2532;52.480;13.354;2022-08-21T02:22:57;20.60;98.50
5027;DHT22;2532;52.480;13.354;2022-08-21T02:25:25;20.60;98.20
5027;DHT22;2532;52.480;13.354;2022-08-21T02:27:54;20.60;98.20
5027;DHT22;2532;52.480;13.354;2022-08-21T02:30:23;20.60;98.30
5027;DHT22;2532;52.480;13.354;2022-08-21T02:32:51;20.60;98.20
5027;DHT22;2532;52.480;13.354;2022-08-21T02:35:18;20.50;98.20
5027;DHT22;2532;52.480;13.354;2022-08-21T02:37:48;20.50;98.50
5027;DHT22;2532;52.480;13.354;2022-08-21T02:40:17;20.40;98.10
5027;DHT22;2532;52.480;13.354;2022-08-21T02:42:44;20.40;98.30
5027;DHT22;2532;52.480;13.354;2022-08-21T02:45:13;20.40;98.20
5027;DHT22;2532;52.480;13.354;2022-08-21T02:47:47;20.40;98.30
5027;DHT22;2532;52.480;13.354;2022-08-21T02:50:16;20.40;98.30
5027;DHT22;2532;52.480;13.354;2022-08-21T02:52:43;20.30;98.30
5027;DHT22;2532;52.480;13.354;2022-08-21T02:55:11;20.30;98.30
5027;DHT22;2532;52.480;13.354;2022-08-21T02:57:38;20.20;98.30
5027;DHT22;2532;52.480;13.354;2022-08-21T03:00:06;20.20;98.20
5027;DHT22;2532;52.480;13.354;2022-08-21T03:02:35;20.10;98.30
5027;DHT22;2532;52.480;13.354;2022-08-21T03:05:02;20.20;98.30
5027;DHT22;2532;52.480;13.354;2022-08-21T03:07:29;20.10;98.30
5027;DHT22;2532;52.480;13.354;2022-08-21T03:09:56;20.10;98.50
5027;DHT22;2532;52.480;13.354;2022-08-21T03:12:23;20.10;97.90
5027;DHT22;2532;52.480;13.354;2022-08-21T03:14:50;20.00;97.90
5027;DHT22;2532;52.480;13.354;2022-08-21T03:17:17;20.00;97.90
5027;DHT22;2532;52.480;13.354;2022-08-21T03:19:45;20.00;97.70
5027;DHT22;2532;52.480;13.354;2022-08-21T03:22:12;20.00;97.70
5027;DHT22;2532;52.480;13.354;2022-08-21T03:24:39;20.00;97.60
5027;DHT22;2532;52.480;13.354;2022-08-21T03:27:06;19.90;97.40
5027;DHT22;2532;52.480;13.354;2022-08-21T03:29:33;20.00;97.40
5027;DHT22;2532;52.480;13.354;2022-08-21T03:31:59;20.00;97.20
5027;DHT22;2532;52.480;13.354;2022-08-21T03:34:26;19.90;97.20
5027;DHT22;2532;52.480;13.354;2022-08-21T03:36:55;19.90;97.40
5027;DHT22;2532;52.480;13.354;2022-08-21T03:39:21;19.90;97.30
5027;DHT22;2532;52.480;13.354;2022-08-21T03:41:48;19.90;97.20
5027;DHT22;2532;52.480;13.354;2022-08-21T03:44:15;19.90;97.10
5027;DHT22;2532;52.480;13.354;2022-08-21T03:46:42;19.90;97.20
5027;DHT22;2532;52.480;13.354;2022-08-21T03:49:09;19.90;97.10
5027;DHT22;2532;52.480;13.354;2022-08-21T03:51:36;19.80;96.90
5027;DHT22;2532;52.480;13.354;2022-08-21T03:54:04;19.80;97.00
5027;DHT22;2532;52.480;13.354;2022-08-21T03:56:31;19.80;97.00
5027;DHT22;2532;52.480;13.354;2022-08-21T03:58:58;19.90;97.00
5027;DHT22;2532;52.480;13.354;2022-08-21T04:01:25;19.90;97.00
5027;DHT22;2532;52.480;13.354;2022-08-21T04:03:52;19.90;96.80
5027;DHT22;2532;52.480;13.354;2022-08-21T04:06:19;19.90;96.70
5027;DHT22;2532;52.480;13.354;2022-08-21T04:08:46;19.80;96.70
5027;DHT22;2532;52.480;13.354;2022-08-21T04:11:14;19.80;96.70
5027;DHT22;2532;52.480;13.354;2022-08-21T04:13:41;19.70;96.50
5027;DHT22;2532;52.480;13.354;2022-08-21T04:16:08;19.70;96.60
5027;DHT22;2532;52.480;13.354;2022-08-21T04:18:35;19.70;96.60
5027;DHT22;2532;52.480;13.354;2022-08-21T04:21:03;19.60;96.50
5027;DHT22;2532;52.480;13.354;2022-08-21T04:23:31;19.60;96.90
5027;DHT22;2532;52.480;13.354;2022-08-21T04:25:58;19.50;96.60
5027;DHT22;2532;52.480;13.354;2022-08-21T04:28:27;19.50;96.60
5027;DHT22;2532;52.480;13.354;2022-08-21T04:30:55;19.60;96.80
5027;DHT22;2532;52.480;13.354;2022-08-21T04:33:22;19.50;96.70
5027;DHT22;2532;52.480;13.354;2022-08-21T04:35:50;19.50;96.70
5027;DHT22;2532;52.480;13.354;2022-08-21T04:38:17;19.60;96.50
5027;DHT22;2532;52.480;13.354;2022-08-21T04:40:44;19.50;96.50
5027;DHT22;2532;52.480;13.354;2022-08-21T04:43:12;19.50;96.40
5027;DHT22;2532;52.480;13.354;2022-08-21T04:45:42;19.50;96.50
5027;DHT22;2532;52.480;13.354;2022-08-21T04:48:11;19.50;96.40
5027;DHT22;2532;52.480;13.354;2022-08-21T04:50:42;19.40;96.40
5027;DHT22;2532;52.480;13.354;2022-08-21T04:53:17;19.40;96.40
5027;DHT22;2532;52.480;13.354;2022-08-21T04:55:45;19.30;96.30
5027;DHT22;2532;52.480;13.354;2022-08-21T04:58:15;19.40;96.60
5027;DHT22;2532;52.480;13.354;2022-08-21T05:00:46;19.40;96.60
5027;DHT22;2532;52.480;13.354;2022-08-21T05:03:14;19.40;96.50
5027;DHT22;2532;52.480;13.354;2022-08-21T05:05:43;19.40;96.50
5027;DHT22;2532;52.480;13.354;2022-08-21T05:08:13;19.50;96.60
5027;DHT22;2532;52.480;13.354;2022-08-21T05:10:42;19.50;96.50
5027;DHT22;2532;52.480;13.354;2022-08-21T05:13:10;19.60;96.50
5027;DHT22;2532;52.480;13.354;2022-08-21T05:15:38;19.60;96.50
5027;DHT22;2532;52.480;13.354;2022-08-21T05:18:06;19.50;96.30
5027;DHT22;2532;52.480;13.354;2022-08-21T05:20:34;19.50;96.20
5027;DHT22;2532;52.480;13.354;2022-08-21T05:23:05;19.50;96.20
5027;DHT22;2532;52.480;13.354;2022-08-21T05:25:33;19.50;96.30
5027;DHT22;2532;52.480;13.354;2022-08-21T05:28:00;19.50;96.20
5027;DHT22;2532;52.480;13.354;2022-08-21T05:30:27;19.50;96.20
5027;DHT22;2532;52.480;13.354;2022-08-21T05:32:56;19.50;96.20
5027;DHT22;2532;52.480;13.354;2022-08-21T05:35:25;19.60;96.30
5027;DHT22;2532;52.480;13.354;2022-08-21T05:37:52;19.50;96.20
5027;DHT22;2532;52.480;13.354;2022-08-21T05:40:19;19.50;96.20
5027;DHT22;2532;52.480;13.354;2022-08-21T05:42:46;19.50;96.20
5027;DHT22;2532;52.480;13.354;2022-08-21T05:45:13;19.50;96.20
5027;DHT22;2532;52.480;13.354;2022-08-21T05:47:40;19.50;96.10
5027;DHT22;2532;52.480;13.354;2022-08-21T05:50:07;19.50;96.10
5027;DHT22;2532;52.480;13.354;2022-08-21T05:52:35;19.50;96.00
5027;DHT22;2532;52.480;13.354;2022-08-21T05:55:03;19.50;96.00
5027;DHT22;2532;52.480;13.354;2022-08-21T05:57:30;19.60;96.10
5027;DHT22;2532;52.480;13.354;2022-08-21T05:59:57;19.60;96.00
5027;DHT22;2532;52.480;13.354;2022-08-21T06:02:24;19.70;96.00
5027;DHT22;2532;52.480;13.354;2022-08-21T06:04:51;19.70;95.90
5027;DHT22;2532;52.480;13.354;2022-08-21T06:07:17;19.80;95.90
5027;DHT22;2532;52.480;13.354;2022-08-21T06:09:45;19.70;95.70
5027;DHT22;2532;52.480;13.354;2022-08-21T06:12:13;19.70;95.80
5027;DHT22;2532;52.480;13.354;2022-08-21T06:14:40;19.80;95.90
5027;DHT22;2532;52.480;13.354;2022-08-21T06:17:09;19.80;95.80
5027;DHT22;2532;52.480;13.354;2022-08-21T06:19:37;19.80;95.70
5027;DHT22;2532;52.480;13.354;2022-08-21T06:22:05;19.90;95.70
5027;DHT22;2532;52.480;13.354;2022-08-21T06:24:33;19.90;95.60
5027;DHT22;2532;52.480;13.354;2022-08-21T06:27:06;19.70;95.40
5027;DHT22;2532;52.480;13.354;2022-08-21T06:29:33;19.70;95.50
5027;DHT22;2532;52.480;13.354;2022-08-21T06:32:00;19.70;95.50
5027;DHT22;2532;52.480;13.354;2022-08-21T06:34:27;19.70;95.60
5027;DHT22;2532;52.480;13.354;2022-08-21T06:36:54;19.70;95.60
5027;DHT22;2532;52.480;13.354;2022-08-21T06:39:21;19.60;95.60
5027;DHT22;2532;52.480;13.354;2022-08-21T06:41:48;19.70;95.80
5027;DHT22;2532;52.480;13.354;2022-08-21T06:44:17;19.70;95.70
5027;DHT22;2532;52.480;13.354;2022-08-21T06:46:44;19.80;95.70
5027;DHT22;2532;52.480;13.354;2022-08-21T06:49:11;19.80;95.60
5027;DHT22;2532;52.480;13.354;2022-08-21T06:51:38;19.80;95.50
5027;DHT22;2532;52.480;13.354;2022-08-21T06:54:05;19.90;95.60
5027;DHT22;2532;52.480;13.354;2022-08-21T06:56:32;19.90;95.60
5027;DHT22;2532;52.480;13.354;2022-08-21T06:59:00;20.00;95.50
5027;DHT22;2532;52.480;13.354;2022-08-21T07:01:29;20.10;95.50
5027;DHT22;2532;52.480;13.354;2022-08-21T07:03:56;20.10;95.10
5027;DHT22;2532;52.480;13.354;2022-08-21T07:06:22;20.10;95.00
5027;DHT22;2532;52.480;13.354;2022-08-21T07:08:52;20.20;95.20
5027;DHT22;2532;52.480;13.354;2022-08-21T07:11:21;20.20;94.90
5027;DHT22;2532;52.480;13.354;2022-08-21T07:13:48;20.20;94.80
5027;DHT22;2532;52.480;13.354;2022-08-21T07:16:16;20.30;94.80
5027;DHT22;2532;52.480;13.354;2022-08-21T07:18:44;20.20;94.40
5027;DHT22;2532;52.480;13.354;2022-08-21T07:21:11;20.40;94.60
5027;DHT22;2532;52.480;13.354;2022-08-21T07:23:40;20.40;94.40
5027;DHT22;2532;52.480;13.354;2022-08-21T07:26:08;20.40;94.40
5027;DHT22;2532;52.480;13.354;2022-08-21T07:28:35;20.40;94.70
5027;DHT22;2532;52.480;13.354;2022-08-21T07:31:03;20.50;94.00
5027;DHT22;2532;52.480;13.354;2022-08-21T07:33:32;20.60;93.60
5027;DHT22;2532;52.480;13.354;2022-08-21T07:36:01;20.60;93.80
5027;DHT22;2532;52.480;13.354;2022-08-21T07:38:29;20.60;93.90
5027;DHT22;2532;52.480;13.354;2022-08-21T07:40:56;20.60;93.50
5027;DHT22;2532;52.480;13.354;2022-08-21T07:43:24;20.60;93.30
5027;DHT22;2532;52.480;13.354;2022-08-21T07:45:51;20.70;93.20
5027;DHT22;2532;52.480;13.354;2022-08-21T07:48:19;20.80;93.30
5027;DHT22;2532;52.480;13.354;2022-08-21T07:50:46;20.80;92.80
5027;DHT22;2532;52.480;13.354;2022-08-21T07:53:15;20.80;92.50
5027;DHT22;2532;52.480;13.354;2022-08-21T07:55:42;20.80;91.60
5027;DHT22;2532;52.480;13.354;2022-08-21T07:58:09;20.90;92.20
5027;DHT22;2532;52.480;13.354;2022-08-21T08:00:36;21.00;92.00
5027;DHT22;2532;52.480;13.354;2022-08-21T08:03:03;20.90;91.60
5027;DHT22;2532;52.480;13.354;2022-08-21T08:05:30;21.00;91.70
5027;DHT22;2532;52.480;13.354;2022-08-21T08:07:57;21.00;91.30
5027;DHT22;2532;52.480;13.354;2022-08-21T08:10:26;21.00;91.40
5027;DHT22;2532;52.480;13.354;2022-08-21T08:12:53;21.10;90.90
5027;DHT22;2532;52.480;13.354;2022-08-21T08:15:23;21.10;90.80
5027;DHT22;2532;52.480;13.354;2022-08-21T08:17:50;21.20;90.80
5027;DHT22;2532;52.480;13.354;2022-08-21T08:20:17;21.20;90.50
5027;DHT22;2532;52.480;13.354;2022-08-21T08:22:45;21.20;90.00
5027;DHT22;2532;52.480;13.354;2022-08-21T08:25:13;21.30;89.70
5027;DHT22;2532;52.480;13.354;2022-08-21T08:27:43;21.40;90.00
5027;DHT22;2532;52.480;13.354;2022-08-21T08:30:12;21.50;90.30
5027;DHT22;2532;52.480;13.354;2022-08-21T08:32:40;21.60;89.40
5027;DHT22;2532;52.480;13.354;2022-08-21T08:35:08;21.60;89.60
5027;DHT22;2532;52.480;13.354;2022-08-21T08:37:36;21.70;89.20
5027;DHT22;2532;52.480;13.354;2022-08-21T08:40:06;21.80;89.80
5027;DHT22;2532;52.480;13.354;2022-08-21T08:42:35;21.90;88.80
5027;DHT22;2532;52.480;13.354;2022-08-21T08:45:06;21.90;87.20
5027;DHT22;2532;52.480;13.354;2022-08-21T08:47:37;21.90;85.80
5027;DHT22;2532;52.480;13.354;2022-08-21T08:50:07;21.90;85.20
5027;DHT22;2532;52.480;13.354;2022-08-21T08:52:41;21.80;86.10
5027;DHT22;2532;52.480;13.354;2022-08-21T08:55:14;22.00;86.30
5027;DHT22;2532;52.480;13.354;2022-08-21T08:57:44;22.00;85.20
5027;DHT22;2532;52.480;13.354;2022-08-21T09:00:16;22.00;85.00
5027;DHT22;2532;52.480;13.354;2022-08-21T09:02:44;22.00;84.40
5027;DHT22;2532;52.480;13.354;2022-08-21T09:05:19;22.00;84.60
5027;DHT22;2532;52.480;13.354;2022-08-21T09:07:57;22.00;83.60
5027;DHT22;2532;52.480;13.354;2022-08-21T09:10:34;22.00;84.00
5027;DHT22;2532;52.480;13.354;2022-08-21T09:13:07;21.90;83.40
5027;DHT22;2532;52.480;13.354;2022-08-21T09:15:46;21.90;83.40
5027;DHT22;2532;52.480;13.354;2022-08-21T09:18:29;21.90;83.20
5027;DHT22;2532;52.480;13.354;2022-08-21T09:21:05;22.00;84.00
5027;DHT22;2532;52.480;13.354;2022-08-21T09:23:42;22.10;84.30
5027;DHT22;2532;52.480;13.354;2022-08-21T09:26:13;22.20;84.00
5027;DHT22;2532;52.480;13.354;2022-08-21T09:28:41;22.30;83.40
5027;DHT22;2532;52.480;13.354;2022-08-21T09:31:22;22.30;82.70
5027;DHT22;2532;52.480;13.354;2022-08-21T09:33:49;22.40;82.80
5027;DHT22;2532;52.480;13.354;2022-08-21T09:36:24;22.50;82.80
5027;DHT22;2532;52.480;13.354;2022-08-21T09:38:53;22.40;80.20
5027;DHT22;2532;52.480;13.354;2022-08-21T09:41:28;22.50;81.00
5027;DHT22;2532;52.480;13.354;2022-08-21T09:43:56;22.40;80.90
5027;DHT22;2532;52.480;13.354;2022-08-21T09:46:26;22.50;81.70
5027;DHT22;2532;52.480;13.354;2022-08-21T09:48:55;22.60;82.30
5027;DHT22;2532;52.480;13.354;2022-08-21T09:51:24;22.70;82.50
5027;DHT22;2532;52.480;13.354;2022-08-21T09:53:55;22.70;81.90
5027;DHT22;2532;52.480;13.354;2022-08-21T09:56:29;22.70;82.00
5027;DHT22;2532;52.480;13.354;2022-08-21T09:59:19;22.80;81.00
5027;DHT22;2532;52.480;13.354;2022-08-21T10:01:50;22.90;80.00
5027;DHT22;2532;52.480;13.354;2022-08-21T10:04:21;22.90;78.70
5027;DHT22;2532;52.480;13.354;2022-08-21T10:06:49;23.00;77.60
5027;DHT22;2532;52.480;13.354;2022-08-21T10:09:18;23.00;77.10
5027;DHT22;2532;52.480;13.354;2022-08-21T10:11:51;23.00;77.10
5027;DHT22;2532;52.480;13.354;2022-08-21T10:14:32;23.00;77.80
5027;DHT22;2532;52.480;13.354;2022-08-21T10:17:09;23.10;78.40
5027;DHT22;2532;52.480;13.354;2022-08-21T10:19:46;23.30;77.30
5027;DHT22;2532;52.480;13.354;2022-08-21T10:22:26;23.30;76.40
5027;DHT22;2532;52.480;13.354;2022-08-21T10:25:06;23.40;75.10
5027;DHT22;2532;52.480;13.354;2022-08-21T10:27:39;23.40;73.90
5027;DHT22;2532;52.480;13.354;2022-08-21T10:30:12;23.50;73.60
5027;DHT22;2532;52.480;13.354;2022-08-21T10:33:08;23.50;71.70
5027;DHT22;2532;52.480;13.354;2022-08-21T10:35:42;23.40;72.30
5027;DHT22;2532;52.480;13.354;2022-08-21T10:38:34;23.40;72.40
5027;DHT22;2532;52.480;13.354;2022-08-21T10:41:13;23.40;73.80
5027;DHT22;2532;52.480;13.354;2022-08-21T10:43:47;23.50;75.00
5027;DHT22;2532;52.480;13.354;2022-08-21T10:46:42;23.60;74.20
5027;DHT22;2532;52.480;13.354;2022-08-21T10:49:22;23.70;71.60
5027;DHT22;2532;52.480;13.354;2022-08-21T10:51:56;23.80;69.70
5027;DHT22;2532;52.480;13.354;2022-08-21T10:54:35;23.70;69.10
5027;DHT22;2532;52.480;13.354;2022-08-21T10:57:11;23.90;68.00
5027;DHT22;2532;52.480;13.354;2022-08-21T10:59:44;23.80;66.60
5027;DHT22;2532;52.480;13.354;2022-08-21T11:02:17;23.80;63.90
5027;DHT22;2532;52.480;13.354;2022-08-21T11:04:52;23.90;65.10
5027;DHT22;2532;52.480;13.354;2022-08-21T11:07:25;23.90;62.70
5027;DHT22;2532;52.480;13.354;2022-08-21T11:09:55;24.00;63.80
5027;DHT22;2532;52.480;13.354;2022-08-21T11:12:26;24.20;64.50
5027;DHT22;2532;52.480;13.354;2022-08-21T11:14:58;24.30;62.60
5027;DHT22;2532;52.480;13.354;2022-08-21T11:17:30;24.30;62.00
5027;DHT22;2532;52.480;13.354;2022-08-21T11:20:07;24.40;60.20
5027;DHT22;2532;52.480;13.354;2022-08-21T11:22:41;24.40;59.70
5027;DHT22;2532;52.480;13.354;2022-08-21T11:25:15;24.30;59.90
5027;DHT22;2532;52.480;13.354;2022-08-21T11:27:46;24.20;61.30
5027;DHT22;2532;52.480;13.354;2022-08-21T11:30:15;24.30;62.60
5027;DHT22;2532;52.480;13.354;2022-08-21T11:33:03;24.30;61.80
5027;DHT22;2532;52.480;13.354;2022-08-21T11:35:37;24.50;62.90
5027;DHT22;2532;52.480;13.354;2022-08-21T11:38:19;24.50;61.60
5027;DHT22;2532;52.480;13.354;2022-08-21T11:40:54;24.60;60.80
5027;DHT22;2532;52.480;13.354;2022-08-21T11:43:33;24.60;61.20
5027;DHT22;2532;52.480;13.354;2022-08-21T11:46:16;24.70;62.10
5027;DHT22;2532;52.480;13.354;2022-08-21T11:48:54;24.80;59.40
5027;DHT22;2532;52.480;13.354;2022-08-21T11:51:31;24.70;60.60
5027;DHT22;2532;52.480;13.354;2022-08-21T11:54:05;24.60;59.60
5027;DHT22;2532;52.480;13.354;2022-08-21T11:56:38;24.70;59.60
5027;DHT22;2532;52.480;13.354;2022-08-21T11:59:11;24.60;59.80
5027;DHT22;2532;52.480;13.354;2022-08-21T12:01:43;24.60;59.40
5027;DHT22;2532;52.480;13.354;2022-08-21T12:04:18;24.60;59.10
5027;DHT22;2532;52.480;13.354;2022-08-21T12:06:49;24.50;58.50
5027;DHT22;2532;52.480;13.354;2022-08-21T12:09:32;24.50;59.30
5027;DHT22;2532;52.480;13.354;2022-08-21T12:12:03;24.60;58.40
5027;DHT22;2532;52.480;13.354;2022-08-21T12:14:43;24.60;59.30
5027;DHT22;2532;52.480;13.354;2022-08-21T12:17:18;24.50;57.90
5027;DHT22;2532;52.480;13.354;2022-08-21T12:19:57;24.60;58.40
5027;DHT22;2532;52.480;13.354;2022-08-21T12:22:36;24.70;58.50
5027;DHT22;2532;52.480;13.354;2022-08-21T12:25:06;24.70;58.40
5027;DHT22;2532;52.480;13.354;2022-08-21T12:27:45;24.70;58.00
5027;DHT22;2532;52.480;13.354;2022-08-21T12:30:22;24.80;58.00
5027;DHT22;2532;52.480;13.354;2022-08-21T12:33:01;24.80;58.40
5027;DHT22;2532;52.480;13.354;2022-08-21T12:35:33;24.90;58.30
5027;DHT22;2532;52.480;13.354;2022-08-21T12:38:07;25.00;58.40
5027;DHT22;2532;52.480;13.354;2022-08-21T12:40:39;25.10;58.30
5027;DHT22;2532;52.480;13.354;2022-08-21T12:43:13;25.20;56.70
5027;DHT22;2532;52.480;13.354;2022-08-21T12:45:43;25.20;55.20
5027;DHT22;2532;52.480;13.354;2022-08-21T12:48:14;25.30;56.50
5027;DHT22;2532;52.480;13.354;2022-08-21T12:50:46;25.40;55.80
5027;DHT22;2532;52.480;13.354;2022-08-21T12:53:23;25.40;55.40
5027;DHT22;2532;52.480;13.354;2022-08-21T12:55:52;25.30;56.00
5027;DHT22;2532;52.480;13.354;2022-08-21T12:58:20;25.30;55.90
5027;DHT22;2532;52.480;13.354;2022-08-21T13:00:50;25.30;56.40
5027;DHT22;2532;52.480;13.354;2022-08-21T13:03:18;25.20;57.10
5027;DHT22;2532;52.480;13.354;2022-08-21T13:05:45;25.20;58.00
5027;DHT22;2532;52.480;13.354;2022-08-21T13:08:13;25.20;58.00
5027;DHT22;2532;52.480;13.354;2022-08-21T13:10:41;25.20;58.80
5027;DHT22;2532;52.480;13.354;2022-08-21T13:13:21;25.30;59.00
5027;DHT22;2532;52.480;13.354;2022-08-21T13:15:48;25.30;59.00
5027;DHT22;2532;52.480;13.354;2022-08-21T13:18:23;25.40;60.00
5027;DHT22;2532;52.480;13.354;2022-08-21T13:20:51;25.50;59.50
5027;DHT22;2532;52.480;13.354;2022-08-21T13:23:22;25.60;58.40
5027;DHT22;2532;52.480;13.354;2022-08-21T13:25:51;25.60;57.50
5027;DHT22;2532;52.480;13.354;2022-08-21T13:28:18;25.70;58.30
5027;DHT22;2532;52.480;13.354;2022-08-21T13:30:47;25.80;58.50
5027;DHT22;2532;52.480;13.354;2022-08-21T13:33:16;26.00;58.80
5027;DHT22;2532;52.480;13.354;2022-08-21T13:35:49;26.10;58.90
5027;DHT22;2532;52.480;13.354;2022-08-21T13:38:18;26.10;58.30
5027;DHT22;2532;52.480;13.354;2022-08-21T13:40:49;26.10;58.80
5027;DHT22;2532;52.480;13.354;2022-08-21T13:43:19;26.00;58.30
5027;DHT22;2532;52.480;13.354;2022-08-21T13:45:49;26.10;58.50
5027;DHT22;2532;52.480;13.354;2022-08-21T13:48:17;25.90;58.50
5027;DHT22;2532;52.480;13.354;2022-08-21T13:50:44;25.90;60.00
5027;DHT22;2532;52.480;13.354;2022-08-21T13:53:21;26.00;59.70
5027;DHT22;2532;52.480;13.354;2022-08-21T13:55:49;26.00;59.50
5027;DHT22;2532;52.480;13.354;2022-08-21T13:58:26;26.10;59.70
5027;DHT22;2532;52.480;13.354;2022-08-21T14:00:54;26.10;59.00
5027;DHT22;2532;52.480;13.354;2022-08-21T14:03:32;26.10;59.20
5027;DHT22;2532;52.480;13.354;2022-08-21T14:06:00;26.20;58.30
5027;DHT22;2532;52.480;13.354;2022-08-21T14:08:31;26.30;58.50
5027;DHT22;2532;52.480;13.354;2022-08-21T14:10:59;26.40;58.60
5027;DHT22;2532;52.480;13.354;2022-08-21T14:13:36;26.50;57.70
5027;DHT22;2532;52.480;13.354;2022-08-21T14:16:11;26.50;58.30
5027;DHT22;2532;52.480;13.354;2022-08-21T14:18:46;26.60;58.40
5027;DHT22;2532;52.480;13.354;2022-08-21T14:21:13;26.60;58.20
5027;DHT22;2532;52.480;13.354;2022-08-21T14:23:59;26.60;58.50
5027;DHT22;2532;52.480;13.354;2022-08-21T14:26:26;26.60;58.50
5027;DHT22;2532;52.480;13.354;2022-08-21T14:28:58;26.50;58.80
5027;DHT22;2532;52.480;13.354;2022-08-21T14:31:29;26.40;58.60
5027;DHT22;2532;52.480;13.354;2022-08-21T14:33:58;26.40;58.80
5027;DHT22;2532;52.480;13.354;2022-08-21T14:36:26;26.30;58.80
5027;DHT22;2532;52.480;13.354;2022-08-21T14:38:53;26.30;59.40
5027;DHT22;2532;52.480;13.354;2022-08-21T14:41:22;26.30;59.40
5027;DHT22;2532;52.480;13.354;2022-08-21T14:43:49;26.30;59.60
5027;DHT22;2532;52.480;13.354;2022-08-21T14:46:22;26.40;59.30
5027;DHT22;2532;52.480;13.354;2022-08-21T14:48:49;26.50;58.70
5027;DHT22;2532;52.480;13.354;2022-08-21T14:51:17;26.60;58.50
5027;DHT22;2532;52.480;13.354;2022-08-21T14:53:44;26.60;58.30
5027;DHT22;2532;52.480;13.354;2022-08-21T14:56:11;26.70;58.30
5027;DHT22;2532;52.480;13.354;2022-08-21T14:58:45;26.90;59.40
5027;DHT22;2532;52.480;13.354;2022-08-21T15:01:14;27.00;58.20
5027;DHT22;2532;52.480;13.354;2022-08-21T15:03:42;26.90;57.60
5027;DHT22;2532;52.480;13.354;2022-08-21T15:06:10;26.80;58.50
5027;DHT22;2532;52.480;13.354;2022-08-21T15:08:37;26.80;58.20
5027;DHT22;2532;52.480;13.354;2022-08-21T15:11:05;26.70;58.40
5027;DHT22;2532;52.480;13.354;2022-08-21T15:13:33;26.60;58.70
5027;DHT22;2532;52.480;13.354;2022-08-21T15:16:00;26.50;58.90
5027;DHT22;2532;52.480;13.354;2022-08-21T15:18:29;26.40;59.10
5027;DHT22;2532;52.480;13.354;2022-08-21T15:20:57;26.20;59.40
5027;DHT22;2532;52.480;13.354;2022-08-21T15:23:24;26.10;59.40
5027;DHT22;2532;52.480;13.354;2022-08-21T15:25:52;26.10;59.80
5027;DHT22;2532;52.480;13.354;2022-08-21T15:28:21;26.10;59.60
5027;DHT22;2532;52.480;13.354;2022-08-21T15:30:49;26.20;59.40
5027;DHT22;2532;52.480;13.354;2022-08-21T15:33:16;26.30;59.80
5027;DHT22;2532;52.480;13.354;2022-08-21T15:35:43;26.30;59.60
5027;DHT22;2532;52.480;13.354;2022-08-21T15:38:12;26.30;58.90
5027;DHT22;2532;52.480;13.354;2022-08-21T15:40:41;26.30;59.10
5027;DHT22;2532;52.480;13.354;2022-08-21T15:43:16;26.20;59.50
5027;DHT22;2532;52.480;13.354;2022-08-21T15:45:45;26.20;59.70
5027;DHT22;2532;52.480;13.354;2022-08-21T15:48:11;26.00;59.50
5027;DHT22;2532;52.480;13.354;2022-08-21T15:50:38;26.00;60.00
5027;DHT22;2532;52.480;13.354;2022-08-21T15:53:05;26.00;60.30
5027;DHT22;2532;52.480;13.354;2022-08-21T15:55:34;26.10;60.40
5027;DHT22;2532;52.480;13.354;2022-08-21T15:58:03;26.10;60.20
5027;DHT22;2532;52.480;13.354;2022-08-21T16:00:32;26.30;59.90